createdAt,value
2022-12-15T00:02:26.367Z,16.47
2022-12-15T00:05:11.685Z,14.17
2022-12-15T00:07:57.121Z,15.80
2022-12-15T00:10:42.565Z,14.80
2022-12-15T00:13:32.668Z,16.10
2022-12-15T00:16:18.055Z,16.03
2022-12-15T00:19:03.421Z,16.63
2022-12-15T00:21:48.871Z,17.00
2022-12-15T00:24:34.328Z,15.97
2022-12-15T00:27:19.702Z,18.90
2022-12-15T00:30:05.160Z,16.77
2022-12-15T00:32:50.520Z,17.53
2022-12-15T00:35:36.174Z,19.43
2022-12-15T00:38:30.577Z,18.30
2022-12-15T00:40:59.619Z,18.17
2022-12-15T00:43:30.853Z,17.70
2022-12-15T00:46:17.339Z,18.37
2022-12-15T00:48:44.471Z,19.70
2022-12-15T00:51:11.453Z,17.80
2022-12-15T00:53:58.010Z,19.87
2022-12-15T00:56:43.919Z,18.27
2022-12-15T00:59:29.790Z,18.80
2022-12-15T01:02:15.560Z,19.17
2022-12-15T01:05:00.870Z,17.80
2022-12-15T01:07:49.827Z,18.83
2022-12-15T01:10:36.691Z,19.70
2022-12-15T01:13:23.181Z,18.17
2022-12-15T01:16:08.634Z,19.87
2022-12-15T01:18:53.708Z,18.23
2022-12-15T01:21:24.293Z,19.53
2022-12-15T01:23:52.185Z,19.10
2022-12-15T01:26:19.368Z,20.23
2022-12-15T01:28:46.020Z,18.30
2022-12-15T01:31:12.892Z,19.73
2022-12-15T01:33:40.051Z,19.90
2022-12-15T01:36:07.208Z,19.93
2022-12-15T01:38:33.902Z,20.27
2022-12-15T01:41:08.058Z,19.30
2022-12-15T01:43:37.984Z,19.47
2022-12-15T01:46:16.044Z,19.77
2022-12-15T01:48:59.874Z,20.50
2022-12-15T01:51:32.516Z,19.97
2022-12-15T01:54:10.774Z,19.30
2022-12-15T01:56:42.624Z,20.00
2022-12-15T01:59:14.954Z,19.53
2022-12-15T02:01:41.813Z,18.73
2022-12-15T02:04:09.087Z,18.53
2022-12-15T02:06:36.741Z,19.87
2022-12-15T02:09:04.462Z,20.03
2022-12-15T02:12:07.865Z,20.83
2022-12-15T02:15:12.272Z,19.10
2022-12-15T02:18:04.178Z,19.00
2022-12-15T02:20:41.003Z,17.50
2022-12-15T02:23:36.288Z,19.57
2022-12-15T02:26:24.210Z,18.97
2022-12-15T02:29:00.081Z,19.83
2022-12-15T02:31:51.210Z,20.90
2022-12-15T02:34:23.488Z,20.97
2022-12-15T02:36:56.716Z,20.07
2022-12-15T02:39:25.130Z,19.97
2022-12-15T02:41:52.948Z,20.93
2022-12-15T02:44:25.298Z,18.70
2022-12-15T02:47:10.073Z,19.40
2022-12-15T02:49:49.759Z,19.87
2022-12-15T02:52:47.325Z,20.13
2022-12-15T02:55:51.824Z,19.40
2022-12-15T02:58:46.264Z,18.20
2022-12-15T03:01:29.115Z,19.10
2022-12-15T03:03:56.780Z,18.80
2022-12-15T03:06:25.456Z,18.60
2022-12-15T03:08:52.126Z,19.00
2022-12-15T03:11:18.941Z,18.87
2022-12-15T03:13:45.608Z,19.30
2022-12-15T03:16:12.726Z,19.43
2022-12-15T03:18:39.925Z,17.53
2022-12-15T03:21:06.623Z,20.00
2022-12-15T03:23:34.128Z,19.40
2022-12-15T03:26:01.111Z,19.07
2022-12-15T03:28:27.857Z,20.87
2022-12-15T03:30:54.521Z,19.87
2022-12-15T03:33:21.516Z,20.47
2022-12-15T03:35:48.284Z,17.53
2022-12-15T03:38:15.080Z,19.50
2022-12-15T03:40:41.878Z,18.47
2022-12-15T03:43:08.526Z,18.00
2022-12-15T03:45:35.271Z,18.90
2022-12-15T03:48:01.956Z,18.10
2022-12-15T03:50:29.609Z,17.40
2022-12-15T03:52:59.852Z,18.80
2022-12-15T03:55:28.785Z,19.10
2022-12-15T03:57:56.123Z,16.83
2022-12-15T04:00:24.644Z,18.47
2022-12-15T04:02:51.854Z,17.90
2022-12-15T04:05:31.171Z,18.63
2022-12-15T04:07:59.272Z,18.30
2022-12-15T04:10:33.519Z,18.43
2022-12-15T04:13:09.096Z,18.17
2022-12-15T04:15:37.640Z,18.97
2022-12-15T04:18:07.128Z,18.40
2022-12-15T04:20:34.116Z,18.63
2022-12-15T04:23:00.884Z,19.23
2022-12-15T04:25:46.453Z,19.20
2022-12-15T04:28:32.361Z,19.13
2022-12-15T04:31:36.171Z,18.80
2022-12-15T04:34:25.159Z,18.13
2022-12-15T04:37:12.042Z,18.50
2022-12-15T04:40:00.864Z,18.37
2022-12-15T04:42:46.920Z,18.60
2022-12-15T04:45:33.306Z,17.23
2022-12-15T04:48:18.791Z,19.37
2022-12-15T04:51:04.309Z,18.57
2022-12-15T04:53:49.727Z,19.27
2022-12-15T04:56:35.781Z,18.30
2022-12-15T04:59:21.653Z,18.23
2022-12-15T05:02:07.283Z,18.03
2022-12-15T05:04:52.923Z,18.57
2022-12-15T05:07:38.360Z,18.43
2022-12-15T05:10:24.160Z,17.50
2022-12-15T05:13:09.600Z,20.07
2022-12-15T05:15:55.018Z,17.30
2022-12-15T05:18:40.179Z,17.63
2022-12-15T05:21:25.864Z,18.90
2022-12-15T05:24:11.428Z,18.30
2022-12-15T05:26:56.746Z,19.43
2022-12-15T05:29:42.064Z,18.53
2022-12-15T05:32:08.796Z,18.90
2022-12-15T05:34:37.500Z,18.80
2022-12-15T05:37:05.581Z,18.47
2022-12-15T05:39:32.265Z,18.80
2022-12-15T05:41:58.976Z,19.37
2022-12-15T05:44:26.248Z,18.37
2022-12-15T05:46:53.006Z,19.07
2022-12-15T05:49:19.849Z,17.53
2022-12-15T05:51:48.067Z,18.80
2022-12-15T05:54:18.016Z,19.07
2022-12-15T05:56:45.462Z,18.40
2022-12-15T05:59:12.243Z,18.77
2022-12-15T06:01:39.215Z,17.97
2022-12-15T06:04:06.179Z,19.00
2022-12-15T06:06:33.387Z,19.10
2022-12-15T06:09:00.143Z,19.03
2022-12-15T06:11:27.003Z,18.60
2022-12-15T06:13:55.706Z,19.10
2022-12-15T06:16:24.558Z,19.87
2022-12-15T06:18:55.747Z,18.00
2022-12-15T06:21:25.502Z,18.53
2022-12-15T06:23:53.209Z,19.67
2022-12-15T06:26:29.732Z,19.00
2022-12-15T06:28:58.239Z,18.73
2022-12-15T06:31:26.025Z,17.90
2022-12-15T06:34:00.886Z,19.30
2022-12-15T06:36:28.795Z,19.07
2022-12-15T06:38:58.831Z,19.97
2022-12-15T06:41:25.450Z,19.43
2022-12-15T06:43:54.040Z,18.77
2022-12-15T06:46:20.761Z,17.67
2022-12-15T06:48:48.146Z,18.23
2022-12-15T06:51:17.447Z,17.80
2022-12-15T06:53:54.078Z,18.67
2022-12-15T06:56:28.841Z,17.53
2022-12-15T06:59:00.239Z,18.33
2022-12-15T07:01:27.970Z,19.87
2022-12-15T07:03:55.722Z,18.27
2022-12-15T07:06:22.985Z,17.97
2022-12-15T07:08:56.661Z,18.57
2022-12-15T07:11:23.694Z,18.30
2022-12-15T07:13:51.852Z,17.73
2022-12-15T07:16:19.706Z,18.97
2022-12-15T07:18:46.518Z,18.70
2022-12-15T07:21:13.304Z,19.57
2022-12-15T07:23:54.269Z,19.17
2022-12-15T07:26:22.902Z,18.30
2022-12-15T07:28:49.698Z,18.17
2022-12-15T07:31:16.510Z,18.70
2022-12-15T07:33:43.492Z,17.23
2022-12-15T07:36:11.151Z,18.73
2022-12-15T07:38:38.072Z,18.27
2022-12-15T07:41:07.373Z,17.27
2022-12-15T07:43:35.251Z,18.23
2022-12-15T07:46:03.116Z,17.20
2022-12-15T07:48:30.287Z,17.60
2022-12-15T07:51:04.913Z,18.07
2022-12-15T07:53:34.282Z,18.40
2022-12-15T07:56:10.304Z,17.97
2022-12-15T07:58:38.087Z,17.67
2022-12-15T08:01:07.290Z,19.27
2022-12-15T08:03:35.484Z,17.43
2022-12-15T08:06:11.186Z,18.73
2022-12-15T08:08:38.434Z,18.77
2022-12-15T08:11:11.088Z,18.80
2022-12-15T08:14:02.131Z,18.70
2022-12-15T08:16:25.841Z,18.60
2022-12-15T08:18:52.826Z,18.57
2022-12-15T08:21:19.711Z,18.47
2022-12-15T08:23:46.321Z,19.80
2022-12-15T08:26:17.134Z,19.70
2022-12-15T08:28:44.714Z,19.33
2022-12-15T08:31:14.544Z,20.70
2022-12-15T08:33:41.224Z,20.23
2022-12-15T08:36:09.800Z,19.87
2022-12-15T08:38:38.522Z,20.03
2022-12-15T08:41:13.829Z,19.20
2022-12-15T08:43:47.600Z,19.93
2022-12-15T08:46:22.404Z,18.53
2022-12-15T08:48:50.057Z,19.63
2022-12-15T08:51:17.386Z,20.27
2022-12-15T08:53:44.593Z,19.77
2022-12-15T08:56:17.101Z,18.67
2022-12-15T08:58:45.588Z,18.80
2022-12-15T09:01:22.735Z,19.03
2022-12-15T09:03:52.048Z,19.17
2022-12-15T09:06:25.289Z,19.77
2022-12-15T09:08:56.426Z,20.27
2022-12-15T09:11:24.461Z,19.27
2022-12-15T09:13:51.604Z,20.17
2022-12-15T09:16:19.265Z,19.67
2022-12-15T09:18:49.362Z,19.40
2022-12-15T09:21:17.437Z,20.60
2022-12-15T09:23:48.130Z,19.00
2022-12-15T09:26:15.613Z,18.97
2022-12-15T09:28:43.272Z,20.33
2022-12-15T09:31:16.972Z,20.87
2022-12-15T09:33:44.380Z,22.03
2022-12-15T09:36:13.710Z,20.87
2022-12-15T09:38:41.793Z,20.30
2022-12-15T09:41:15.432Z,20.73
2022-12-15T09:43:55.305Z,20.87
2022-12-15T09:46:30.546Z,19.93
2022-12-15T09:49:01.273Z,23.13
2022-12-15T09:51:43.411Z,21.97
2022-12-15T09:54:11.317Z,21.87
2022-12-15T09:56:49.704Z,22.30
2022-12-15T09:59:57.310Z,23.33
2022-12-15T10:02:31.588Z,23.40
2022-12-15T10:05:17.015Z,23.30
2022-12-15T10:07:46.403Z,23.33
2022-12-15T10:10:28.032Z,22.00
2022-12-15T10:13:02.320Z,23.23
2022-12-15T10:15:37.935Z,23.57
2022-12-15T10:18:11.699Z,24.90
2022-12-15T10:20:38.515Z,22.87
2022-12-15T10:23:14.291Z,23.50
2022-12-15T10:25:58.600Z,23.33
2022-12-15T10:28:52.218Z,23.83
2022-12-15T10:31:43.738Z,23.27
2022-12-15T10:34:41.016Z,24.27
2022-12-15T10:37:20.061Z,22.83
2022-12-15T10:39:51.166Z,24.13
2022-12-15T10:42:23.882Z,23.63
2022-12-15T10:44:57.902Z,23.20
2022-12-15T10:47:31.940Z,24.60
2022-12-15T10:50:25.037Z,24.07
2022-12-15T10:52:52.037Z,24.77
2022-12-15T10:55:40.480Z,23.97
2022-12-15T10:58:23.480Z,24.47
2022-12-15T11:01:14.590Z,23.27
2022-12-15T11:03:41.693Z,22.23
2022-12-15T11:06:17.811Z,24.30
2022-12-15T11:08:47.234Z,22.97
2022-12-15T11:11:53.174Z,22.40
2022-12-15T11:14:29.292Z,21.73
2022-12-15T11:16:58.111Z,22.23
2022-12-15T11:19:40.233Z,22.20
2022-12-15T11:22:31.503Z,22.30
2022-12-15T11:25:06.427Z,22.07
2022-12-15T11:27:38.925Z,22.43
2022-12-15T11:30:15.960Z,23.03
2022-12-15T11:33:03.227Z,21.40
2022-12-15T11:36:21.391Z,22.17
2022-12-15T11:39:00.749Z,22.10
2022-12-15T11:41:53.395Z,21.33
2022-12-15T11:44:24.511Z,21.60
2022-12-15T11:47:22.655Z,21.60
2022-12-15T11:49:58.426Z,21.87
2022-12-15T11:52:40.119Z,21.57
2022-12-15T11:55:34.526Z,22.17
2022-12-15T11:58:06.458Z,20.87
2022-12-15T12:00:43.365Z,21.57
2022-12-15T12:03:43.206Z,22.03
2022-12-15T12:06:37.784Z,21.20
2022-12-15T12:09:43.412Z,20.50
2022-12-15T12:12:40.155Z,21.17
2022-12-15T12:15:24.565Z,20.80
2022-12-15T12:17:53.592Z,20.60
2022-12-15T12:20:25.790Z,22.27
2022-12-15T12:23:19.290Z,21.63
2022-12-15T12:26:10.479Z,21.33
2022-12-15T12:29:01.116Z,23.40
2022-12-15T12:31:39.384Z,21.73
2022-12-15T12:34:22.338Z,20.93
2022-12-15T12:36:50.666Z,21.57
2022-12-15T12:39:25.516Z,21.67
2022-12-15T12:42:06.527Z,22.00
2022-12-15T12:44:37.049Z,22.33
2022-12-15T12:47:25.482Z,21.30
2022-12-15T12:50:02.604Z,24.60
2022-12-15T12:52:37.302Z,24.10
2022-12-15T12:55:14.751Z,21.57
2022-12-15T12:57:43.265Z,21.33
2022-12-15T13:00:22.598Z,22.30
2022-12-15T13:03:13.353Z,21.47
2022-12-15T13:05:41.839Z,22.47
2022-12-15T13:08:08.698Z,22.87
2022-12-15T13:10:41.074Z,23.37
2022-12-15T13:13:29.336Z,23.23
2022-12-15T13:16:17.850Z,23.07
2022-12-15T13:19:03.604Z,23.77
2022-12-15T13:21:42.827Z,22.77
2022-12-15T13:24:31.994Z,23.23
2022-12-15T13:27:11.315Z,22.90
2022-12-15T13:29:55.245Z,23.77
2022-12-15T13:32:35.556Z,25.03
2022-12-15T13:35:29.611Z,23.53
2022-12-15T13:38:07.253Z,24.97
2022-12-15T13:40:36.754Z,24.57
2022-12-15T13:45:53.896Z,24.60
2022-12-15T13:48:44.308Z,24.33
2022-12-15T13:51:33.595Z,24.47
2022-12-15T13:54:12.195Z,23.40
2022-12-15T13:56:46.435Z,23.23
2022-12-15T14:02:36.574Z,22.87
2022-12-15T14:05:29.205Z,23.73
2022-12-15T14:07:58.638Z,22.70
2022-12-15T14:10:28.647Z,23.83
2022-12-15T14:13:15.405Z,22.07
2022-12-15T14:15:47.302Z,23.50
2022-12-15T14:18:25.095Z,22.97
2022-12-15T14:20:51.824Z,23.13
2022-12-15T14:23:24.112Z,22.47
2022-12-15T14:26:04.719Z,22.77
2022-12-15T14:28:34.134Z,22.90
2022-12-15T14:31:23.727Z,22.00
2022-12-15T14:34:03.168Z,24.07
2022-12-15T14:36:32.481Z,23.73
2022-12-15T14:39:06.194Z,23.70
2022-12-15T14:41:38.976Z,22.87
2022-12-15T14:44:31.505Z,23.37
2022-12-15T14:47:05.878Z,22.97
2022-12-15T14:49:42.561Z,22.53
2022-12-15T14:52:21.378Z,23.87
2022-12-15T14:54:57.470Z,21.93
2022-12-15T14:57:45.972Z,23.40
2022-12-15T15:00:35.043Z,22.87
2022-12-15T15:03:14.142Z,23.43
2022-12-15T15:06:00.344Z,23.77
2022-12-15T15:08:36.867Z,24.17
2022-12-15T15:11:17.462Z,24.13
2022-12-15T15:13:44.925Z,23.93
2022-12-15T15:16:18.390Z,24.80
2022-12-15T15:18:50.528Z,25.50
2022-12-15T15:21:26.159Z,25.17
2022-12-15T15:24:23.194Z,25.57
2022-12-15T15:26:49.894Z,24.93
2022-12-15T15:29:48.989Z,23.23
2022-12-15T15:32:19.059Z,24.93
2022-12-15T15:34:47.155Z,23.90
2022-12-15T15:37:26.279Z,24.47
2022-12-15T15:39:56.312Z,23.90
2022-12-15T15:42:29.136Z,24.97
2022-12-15T15:44:58.930Z,24.30
2022-12-15T15:47:26.568Z,26.37
2022-12-15T15:49:55.247Z,25.57
2022-12-15T15:52:22.810Z,24.87
2022-12-15T15:54:50.063Z,25.80
2022-12-15T15:57:18.481Z,24.23
2022-12-15T15:59:46.632Z,25.27
2022-12-15T16:02:14.815Z,25.10
2022-12-15T16:04:42.968Z,24.97
2022-12-15T16:07:24.032Z,27.87
2022-12-15T16:09:52.167Z,26.97
2022-12-15T16:12:35.861Z,26.30
2022-12-15T16:15:02.630Z,27.10
2022-12-15T16:17:29.301Z,27.53
2022-12-15T16:20:01.231Z,28.03
2022-12-15T16:22:27.946Z,30.13
2022-12-15T16:24:54.655Z,29.13
2022-12-15T16:27:24.281Z,28.73
2022-12-15T16:29:51.110Z,27.10
2022-12-15T16:32:17.779Z,27.00
2022-12-15T16:34:44.422Z,27.53
2022-12-15T16:37:27.353Z,30.27
2022-12-15T16:39:54.063Z,30.03
2022-12-15T16:42:20.797Z,28.30
2022-12-15T16:44:50.403Z,28.90
2022-12-15T16:47:17.196Z,28.27
2022-12-15T16:49:43.832Z,27.80
2022-12-15T16:52:21.052Z,28.43
2022-12-15T16:54:48.964Z,28.77
2022-12-15T16:57:15.703Z,29.33
2022-12-15T16:59:42.379Z,29.40
2022-12-15T17:02:28.393Z,29.33
2022-12-15T17:04:55.829Z,28.43
2022-12-15T17:07:25.085Z,30.23
2022-12-15T17:09:52.017Z,29.10
2022-12-15T17:12:19.046Z,29.10
2022-12-15T17:14:46.251Z,29.97
2022-12-15T17:17:15.498Z,29.03
2022-12-15T17:19:52.722Z,33.87
2022-12-15T17:22:29.042Z,28.47
2022-12-15T17:24:55.715Z,28.43
2022-12-15T17:27:28.008Z,32.13
2022-12-15T17:29:57.810Z,27.90
2022-12-15T17:32:24.519Z,31.07
2022-12-15T17:34:51.669Z,29.83
2022-12-15T17:37:18.785Z,28.73
2022-12-15T17:39:50.801Z,29.07
2022-12-15T17:42:19.813Z,28.37
2022-12-15T17:44:47.853Z,28.33
2022-12-15T17:47:15.907Z,28.70
2022-12-15T17:49:43.234Z,27.90
2022-12-15T17:52:27.796Z,30.70
2022-12-15T17:54:55.434Z,30.83
2022-12-15T17:57:22.330Z,30.73
2022-12-15T17:59:49.091Z,27.77
2022-12-15T18:02:15.983Z,29.67
2022-12-15T18:04:43.383Z,29.30
2022-12-15T18:07:36.388Z,30.70
2022-12-15T18:10:03.944Z,28.63
2022-12-15T18:12:30.582Z,29.07
2022-12-15T18:14:57.220Z,29.97
2022-12-15T18:17:24.409Z,30.97
2022-12-15T18:19:51.172Z,29.53
2022-12-15T18:22:23.452Z,27.50
2022-12-15T18:24:52.605Z,29.20
2022-12-15T18:27:28.132Z,27.93
2022-12-15T18:29:55.342Z,28.77
2022-12-15T18:32:25.782Z,29.50
2022-12-15T18:34:53.484Z,27.03
2022-12-15T18:37:22.827Z,27.90
2022-12-15T18:39:50.775Z,27.03
2022-12-15T18:42:22.997Z,28.53
2022-12-15T18:44:51.945Z,28.43
2022-12-15T18:47:21.569Z,27.83
2022-12-15T18:49:48.504Z,28.73
2022-12-15T18:52:20.269Z,27.13
2022-12-15T18:54:48.446Z,29.77
2022-12-15T18:57:29.582Z,27.93
2022-12-15T19:00:07.819Z,28.23
2022-12-15T19:02:34.522Z,26.53
2022-12-15T19:05:01.264Z,27.63
2022-12-15T19:07:28.051Z,25.20
2022-12-15T19:09:54.995Z,25.43
2022-12-15T19:12:21.849Z,26.73
2022-12-15T19:14:51.241Z,25.97
2022-12-15T19:17:38.125Z,26.80
2022-12-15T19:20:43.473Z,26.60
2022-12-15T19:23:12.429Z,25.90
2022-12-15T19:25:40.076Z,26.63
2022-12-15T19:28:13.685Z,26.27
2022-12-15T19:30:42.303Z,24.30
2022-12-15T19:33:13.276Z,28.47
2022-12-15T19:35:42.776Z,26.00
2022-12-15T19:38:39.848Z,24.83
2022-12-15T19:41:06.550Z,26.13
2022-12-15T19:43:33.419Z,25.90
2022-12-15T19:46:03.138Z,25.37
2022-12-15T19:48:29.764Z,24.73
2022-12-15T19:50:56.449Z,25.43
2022-12-15T19:53:28.235Z,24.43
2022-12-15T19:56:01.239Z,26.83
2022-12-15T19:58:31.714Z,26.10
2022-12-15T20:01:01.373Z,24.87
2022-12-15T20:03:32.528Z,25.03
2022-12-15T20:06:01.474Z,24.53
2022-12-15T20:08:35.146Z,25.50
2022-12-15T20:11:01.970Z,24.03
2022-12-15T20:13:29.091Z,25.17
2022-12-15T20:15:56.206Z,22.23
2022-12-15T20:18:22.892Z,23.47
2022-12-15T20:20:49.931Z,25.40
2022-12-15T20:23:26.264Z,22.23
2022-12-15T20:25:53.966Z,23.60
2022-12-15T20:28:27.625Z,23.80
2022-12-15T20:30:56.080Z,25.33
2022-12-15T20:33:23.789Z,23.87
2022-12-15T20:35:51.492Z,23.97
2022-12-15T20:38:33.210Z,24.77
2022-12-15T20:41:01.780Z,24.63
2022-12-15T20:43:31.692Z,37.50
2022-12-15T20:46:15.295Z,25.13
2022-12-15T20:48:43.062Z,25.37
2022-12-15T20:51:22.084Z,29.93
2022-12-15T20:53:50.572Z,23.03
2022-12-15T20:56:20.781Z,26.60
2022-12-15T20:58:47.608Z,28.17
2022-12-15T21:01:20.359Z,25.57
2022-12-15T21:03:48.820Z,24.00
2022-12-15T21:06:15.942Z,25.37
2022-12-15T21:08:42.593Z,23.80
2022-12-15T21:11:27.342Z,24.10
2022-12-15T21:13:56.747Z,24.43
2022-12-15T21:16:26.658Z,23.27
2022-12-15T21:21:44.992Z,22.90
2022-12-15T21:24:23.549Z,21.43
2022-12-15T21:26:50.862Z,20.97
2022-12-15T21:29:23.228Z,29.00
2022-12-15T21:31:51.511Z,22.63
2022-12-15T21:34:18.229Z,27.13
2022-12-15T21:36:49.296Z,21.70
2022-12-15T21:39:24.366Z,27.63
2022-12-15T21:41:51.191Z,23.87
2022-12-15T21:44:18.485Z,23.13
2022-12-15T21:46:45.259Z,23.70
2022-12-15T21:49:20.397Z,22.57
2022-12-15T21:51:58.536Z,23.07
2022-12-15T21:54:31.309Z,20.70
2022-12-15T21:56:59.523Z,21.20
2022-12-15T21:59:29.562Z,18.90
2022-12-15T22:01:56.376Z,18.77
2022-12-15T22:04:30.241Z,18.33
2022-12-15T22:06:56.902Z,15.97
2022-12-15T22:09:24.461Z,17.20
2022-12-15T22:11:54.080Z,16.67
2022-12-15T22:14:34.088Z,17.13
2022-12-15T22:17:09.522Z,17.17
2022-12-15T22:19:36.143Z,16.97
2022-12-15T22:22:02.784Z,16.37
2022-12-15T22:24:29.418Z,15.33
2022-12-15T22:26:57.067Z,16.53
2022-12-15T22:29:24.643Z,15.53
2022-12-15T22:31:51.765Z,15.90
2022-12-15T22:34:23.587Z,16.17
2022-12-15T22:36:50.616Z,16.07
2022-12-15T22:39:19.077Z,15.07
2022-12-15T22:41:51.414Z,15.43
2022-12-15T22:44:27.368Z,14.47
2022-12-15T22:46:56.648Z,14.43
2022-12-15T22:49:28.438Z,15.87
2022-12-15T22:51:55.203Z,15.10
2022-12-15T22:54:24.409Z,16.33
2022-12-15T22:56:55.521Z,16.00
2022-12-15T22:59:31.730Z,14.90
2022-12-15T23:02:00.285Z,15.53
2022-12-15T23:04:27.037Z,15.47
2022-12-15T23:06:54.937Z,15.80
2022-12-15T23:09:21.806Z,14.00
2022-12-15T23:11:48.521Z,15.83
2022-12-15T23:14:18.389Z,15.60
2022-12-15T23:16:46.320Z,14.57
2022-12-15T23:19:25.261Z,15.10
2022-12-15T23:21:52.276Z,14.57
2022-12-15T23:24:19.249Z,15.53
2022-12-15T23:26:46.092Z,15.50
2022-12-15T23:29:13.393Z,13.60
2022-12-15T23:31:40.239Z,14.00
2022-12-15T23:34:07.272Z,14.10
2022-12-15T23:36:34.075Z,14.90
2022-12-15T23:39:00.824Z,14.53
2022-12-15T23:41:29.454Z,14.40
2022-12-15T23:43:56.363Z,14.27
2022-12-15T23:46:23.167Z,15.00
2022-12-15T23:48:50.082Z,15.33
2022-12-15T23:51:20.352Z,14.50
2022-12-15T23:53:48.747Z,14.10
2022-12-15T23:56:20.474Z,13.47
2022-12-15T23:58:53.593Z,12.20
